Main page
METAR-TAF:

METAR-TAF

Airports :

Vitória da Conquista Airport

Vitória da Conquista, Bahia, Brazil

latitude: 14-57S, longitude: 040-53W, elevation: 840 m

Current weather observation

The report was made 1 hour and 13 minutes ago, at 13:00 UTC
Wind 7 kt from the Southeast
Temperature 26°C
Humidity 54%
Pressure 1024 hPa
Visibility 10 km or more
Scattered clouds at a height of 2500 ft

METAR: SBQV 181300Z 14007KT 9999 SCT025 26/16 Q1024

Time: 12:13 (14:13 UTC)


TAF: missing

Weather observations and forecasts of more than 4000 airports (METAR and TAF reports).

The available stations are represented by yellow and red dots on the map.

Hover mouse over dot to see the name of the station.

Then click to see weather observations and forecasts.

To change the map : click on the green buttons with a black cross to zoom in, on the green button with a dash to zoom out, or on the green arrows for adjacent maps.


METAR-TAF: